Seiyu Maru — JD3189 — position and weather

sailwx.info

Track history (hours):
 
Tides and Currents Weather Stations Pressure Air Temp Water Temp Dewpoint Dewpoint Depression Visibility Wind Speed Wind Dir Waves Ship Positions

Seiyu Maru

Last reported at 2016-Jun-19 16:28 UTC. Time now 2016-Jul-01 19:03 UTC.
Position N 35°29' E 140°49'.
Warning: this ship's position is 12 days out of date.

Length 75 m; draft 4.5 m.

Type: Cargo ship. MMSI: 431002433.

Date/timePositionNaut miles runAvg speedWind from/ knotsBaromVisibWave heightAir tempDewpointWater temp
2016-Jun-19 16:28N 35°29' E 140°49'1512.1
2016-Jun-19 15:16N 35°18' E 140°38'2212.2
2016-Jun-19 13:28N 35°02' E 140°20'1112.0
2016-Jun-19 12:31N 34°56' E 140°08'26010.6
2016-Jun-18 12:05N 33°53' E 135°02'911.2
2016-Jun-18 11:17N 34°01' E 135°02'810.8
2016-Jun-18 10:33N 34°09' E 135°02'1010.0
2016-Jun-18 09:33N 34°19' E 135°04'1110.6
2016-Jun-18 08:33N 34°28' E 135°12'1111.4
2016-Jun-18 07:33N 34°36' E 135°21'3 3.2
2016-Jun-18 06:33N 34°38' E 135°25'0 0.0
2016-Jun-18 05:33N 34°38' E 135°25'0 0.0
2016-Jun-18 04:33N 34°38' E 135°25'0 0.0
2016-Jun-18 03:33N 34°38' E 135°25'0 0.0
2016-Jun-18 02:33N 34°38' E 135°25'0 0.0
2016-Jun-18 01:33N 34°38' E 135°25'0 0.0
2016-Jun-18 00:33N 34°38' E 135°25'2 1.8
2016-Jun-17 23:33N 34°38' E 135°23'1 1.4
2016-Jun-17 22:33N 34°39' E 135°21'0 0.0
2016-Jun-17 21:28N 34°39' E 135°21'0 0.0
2016-Jun-17 20:22N 34°39' E 135°21'0 0.0
2016-Jun-17 19:28N 34°39' E 135°21'0 0.0
2016-Jun-17 18:34N 34°39' E 135°21'0 0.0
2016-Jun-17 17:22N 34°39' E 135°21'0 0.0
2016-Jun-17 16:28N 34°39' E 135°21'0 0.0
2016-Jun-17 15:28N 34°39' E 135°21'0 0.0
2016-Jun-17 14:22N 34°39' E 135°21'0 0.1
2016-Jun-17 13:34N 34°39' E 135°21'0 0.0
2016-Jun-17 12:10N 34°39' E 135°21'0 0.1
2016-Jun-17 11:28N 34°39' E 135°21'0 0.0
2016-Jun-17 10:28N 34°39' E 135°21'0 0.0
2016-Jun-17 09:28N 34°39' E 135°21'4 4.7
2016-Jun-17 08:33N 34°37' E 135°17'1111.4
2016-Jun-17 07:33N 34°36' E 135°03'1010.4
2016-Jun-17 06:33N 34°38' E 134°51'10 0.2
2016-Jun-15 08:31N 34°37' E 135°03'1111.3
2016-Jun-15 07:34N 34°37' E 135°16'10 9.6
2016-Jun-15 06:33N 34°39' E 135°27'0 0.3
2016-Jun-15 05:29N 34°39' E 135°28'1 0.0
2016-Jun-14 01:33N 34°38' E 135°27'0 0.0
2016-Jun-14 00:33N 34°38' E 135°27'0 0.0
2016-Jun-13 23:27N 34°38' E 135°27'0 0.0
2016-Jun-13 22:27N 34°38' E 135°27'0 0.0
2016-Jun-13 21:33N 34°38' E 135°27'0 0.0
2016-Jun-13 20:33N 34°38' E 135°27'0 0.0
2016-Jun-13 19:33N 34°38' E 135°27'0 0.0
2016-Jun-13 18:27N 34°38' E 135°27'0 0.0
2016-Jun-13 17:33N 34°38' E 135°27'0 0.0
2016-Jun-13 16:33N 34°38' E 135°27'0 0.0
2016-Jun-13 15:27N 34°38' E 135°27'0 0.0
2016-Jun-13 14:33N 34°38' E 135°27'0 0.0
2016-Jun-13 13:27N 34°38' E 135°27'0 0.1
2016-Jun-13 12:12N 34°38' E 135°27'5 7.3
2016-Jun-13 11:34N 34°37' E 135°21'1110.9
2016-Jun-13 10:33N 34°29' E 135°12'1110.8
2016-Jun-13 09:32N 34°21' E 135°03'251 5.3
2016-Jun-11 10:27N 34°57' E 140°05'42 9.9
2016-Jun-11 06:11N 35°25' E 140°44'710.1
2016-Jun-11 05:29N 35°31' E 140°49'5410.2
2016-Jun-11 00:13N 36°24' E 141°01'1210.7
2016-Jun-10 23:07N 36°35' E 141°05'610.6
2016-Jun-10 22:32N 36°41' E 141°07'1010.4
2016-Jun-10 21:33N 36°51' E 141°11'1110.5
2016-Jun-10 20:33N 37°01' E 141°14'  
Track history (hours):
 
Tides and Currents Weather Stations Pressure Air Temp Water Temp Dewpoint Dewpoint Depression Visibility Wind Speed Wind Dir Waves Ship Positions

Seiyu Maru

Last reported at 2016-Jun-19 16:28 UTC. Time now 2016-Jul-01 19:03 UTC.
Position N 35°29' E 140°49'.
Warning: this ship's position is 12 days out of date.

Length 75 m; draft 4.5 m.

Type: Cargo ship. MMSI: 431002433.

Date/timePositionNaut miles runAvg speedWind from/ knotsBaromVisibWave heightAir tempDewpointWater temp
2016-Jun-19 16:28N 35°29' E 140°49'1512.1
2016-Jun-19 15:16N 35°18' E 140°38'2212.2
2016-Jun-19 13:28N 35°02' E 140°20'1112.0
2016-Jun-19 12:31N 34°56' E 140°08'26010.6
2016-Jun-18 12:05N 33°53' E 135°02'911.2
2016-Jun-18 11:17N 34°01' E 135°02'810.8
2016-Jun-18 10:33N 34°09' E 135°02'1010.0
2016-Jun-18 09:33N 34°19' E 135°04'1110.6
2016-Jun-18 08:33N 34°28' E 135°12'1111.4
2016-Jun-18 07:33N 34°36' E 135°21'3 3.2
2016-Jun-18 06:33N 34°38' E 135°25'0 0.0
2016-Jun-18 05:33N 34°38' E 135°25'0 0.0
2016-Jun-18 04:33N 34°38' E 135°25'0 0.0
2016-Jun-18 03:33N 34°38' E 135°25'0 0.0
2016-Jun-18 02:33N 34°38' E 135°25'0 0.0
2016-Jun-18 01:33N 34°38' E 135°25'0 0.0
2016-Jun-18 00:33N 34°38' E 135°25'2 1.8
2016-Jun-17 23:33N 34°38' E 135°23'1 1.4
2016-Jun-17 22:33N 34°39' E 135°21'0 0.0
2016-Jun-17 21:28N 34°39' E 135°21'0 0.0
2016-Jun-17 20:22N 34°39' E 135°21'0 0.0
2016-Jun-17 19:28N 34°39' E 135°21'0 0.0
2016-Jun-17 18:34N 34°39' E 135°21'0 0.0
2016-Jun-17 17:22N 34°39' E 135°21'0 0.0
2016-Jun-17 16:28N 34°39' E 135°21'0 0.0
2016-Jun-17 15:28N 34°39' E 135°21'0 0.0
2016-Jun-17 14:22N 34°39' E 135°21'0 0.1
2016-Jun-17 13:34N 34°39' E 135°21'0 0.0
2016-Jun-17 12:10N 34°39' E 135°21'0 0.1
2016-Jun-17 11:28N 34°39' E 135°21'0 0.0
2016-Jun-17 10:28N 34°39' E 135°21'0 0.0
2016-Jun-17 09:28N 34°39' E 135°21'4 4.7
2016-Jun-17 08:33N 34°37' E 135°17'1111.4
2016-Jun-17 07:33N 34°36' E 135°03'1010.4
2016-Jun-17 06:33N 34°38' E 134°51'10 0.2
2016-Jun-15 08:31N 34°37' E 135°03'1111.3
2016-Jun-15 07:34N 34°37' E 135°16'10 9.6
2016-Jun-15 06:33N 34°39' E 135°27'0 0.3
2016-Jun-15 05:29N 34°39' E 135°28'1 0.0
2016-Jun-14 01:33N 34°38' E 135°27'0 0.0
2016-Jun-14 00:33N 34°38' E 135°27'0 0.0
2016-Jun-13 23:27N 34°38' E 135°27'0 0.0
2016-Jun-13 22:27N 34°38' E 135°27'0 0.0
2016-Jun-13 21:33N 34°38' E 135°27'0 0.0
2016-Jun-13 20:33N 34°38' E 135°27'0 0.0
2016-Jun-13 19:33N 34°38' E 135°27'0 0.0
2016-Jun-13 18:27N 34°38' E 135°27'0 0.0
2016-Jun-13 17:33N 34°38' E 135°27'0 0.0
2016-Jun-13 16:33N 34°38' E 135°27'0 0.0
2016-Jun-13 15:27N 34°38' E 135°27'0 0.0
2016-Jun-13 14:33N 34°38' E 135°27'0 0.0
2016-Jun-13 13:27N 34°38' E 135°27'0 0.1
2016-Jun-13 12:12N 34°38' E 135°27'5 7.3
2016-Jun-13 11:34N 34°37' E 135°21'1110.9
2016-Jun-13 10:33N 34°29' E 135°12'1110.8
2016-Jun-13 09:32N 34°21' E 135°03'251 5.3
2016-Jun-11 10:27N 34°57' E 140°05'42 9.9
2016-Jun-11 06:11N 35°25' E 140°44'710.1
2016-Jun-11 05:29N 35°31' E 140°49'5410.2
2016-Jun-11 00:13N 36°24' E 141°01'1210.7
2016-Jun-10 23:07N 36°35' E 141°05'610.6
2016-Jun-10 22:32N 36°41' E 141°07'1010.4
2016-Jun-10 21:33N 36°51' E 141°11'1110.5
2016-Jun-10 20:33N 37°01' E 141°14'  

Dump ship's entire track history